createdAt,value
2022-08-25T11:24:53.387Z,5776.00
2022-08-25T11:25:53.361Z,5672.00
2022-08-25T11:26:53.364Z,5584.00
2022-08-25T11:27:53.360Z,5556.00
2022-08-25T11:28:53.331Z,5588.00
2022-08-25T11:29:53.321Z,5704.00
2022-08-25T11:30:53.357Z,5920.00
2022-08-25T11:31:53.895Z,5924.00
2022-08-25T11:32:53.303Z,6084.00
2022-08-25T11:33:53.291Z,6512.00
2022-08-25T11:34:53.272Z,6700.00
2022-08-25T11:35:53.271Z,6812.00
2022-08-25T11:36:53.257Z,6852.00
2022-08-25T11:37:53.265Z,6748.00
2022-08-25T11:38:53.237Z,6740.00
2022-08-25T11:39:53.266Z,6968.00
2022-08-25T11:40:53.230Z,7180.00
2022-08-25T11:41:53.219Z,7252.00
2022-08-25T11:42:53.223Z,7592.00
2022-08-25T11:43:53.190Z,7836.00
2022-08-25T11:44:54.894Z,7852.00
2022-08-25T11:45:54.542Z,7836.00
2022-08-25T11:46:53.177Z,7692.00
2022-08-25T11:47:53.179Z,7508.00
2022-08-25T11:48:53.159Z,7316.00
2022-08-25T11:49:53.155Z,7152.00
2022-08-25T11:50:53.142Z,6932.00
2022-08-25T11:51:53.133Z,6616.00
2022-08-25T11:52:53.137Z,6300.00
2022-08-25T11:53:53.116Z,6232.00
2022-08-25T11:54:53.099Z,6336.00
2022-08-25T11:55:53.092Z,6420.00
2022-08-25T11:56:53.093Z,6464.00
2022-08-25T11:57:53.727Z,6504.00
2022-08-25T11:58:53.062Z,6492.00
2022-08-25T11:59:53.069Z,6396.00
2022-08-25T12:00:53.050Z,6428.00
2022-08-25T12:01:53.049Z,6652.00
2022-08-25T12:02:53.048Z,7116.00
2022-08-25T12:03:53.133Z,6904.00
2022-08-25T12:04:53.162Z,6548.00
2022-08-25T12:05:53.005Z,6788.00
2022-08-25T12:06:53.006Z,6920.00
2022-08-25T12:07:52.999Z,6800.00
2022-08-25T12:08:52.981Z,6524.00
2022-08-25T12:09:52.972Z,6308.00
2022-08-25T12:10:52.966Z,6272.00
2022-08-25T12:11:52.966Z,6304.00
2022-08-25T12:12:52.966Z,6316.00
2022-08-25T12:13:52.944Z,6308.00
2022-08-25T12:14:52.941Z,6312.00
2022-08-25T12:15:52.929Z,6288.00
2022-08-25T12:16:52.943Z,6280.00
2022-08-25T12:17:52.928Z,6276.00
2022-08-25T12:18:52.918Z,6284.00
2022-08-25T12:19:52.897Z,6296.00
2022-08-25T12:20:52.891Z,6308.00
2022-08-25T12:21:52.882Z,6308.00
2022-08-25T12:22:52.895Z,6260.00
2022-08-25T12:23:53.368Z,6264.00
2022-08-25T12:24:52.871Z,6304.00
2022-08-25T12:25:52.863Z,6316.00
2022-08-25T12:26:52.844Z,6340.00
2022-08-25T12:27:52.836Z,6336.00
2022-08-25T12:28:52.849Z,6340.00
2022-08-25T12:29:52.822Z,6368.00
2022-08-25T12:30:52.890Z,6396.00
2022-08-25T12:31:52.810Z,6420.00
2022-08-25T12:32:52.800Z,6436.00
2022-08-25T12:33:52.816Z,6456.00
2022-08-25T12:34:52.795Z,6476.00
2022-08-25T12:35:52.777Z,6492.00
2022-08-25T12:36:52.770Z,6516.00
2022-08-25T12:37:52.762Z,6544.00
2022-08-25T12:38:52.767Z,6548.00
2022-08-25T12:39:52.787Z,6556.00
2022-08-25T12:40:52.749Z,6600.00
2022-08-25T12:41:52.777Z,6632.00
2022-08-25T12:42:52.735Z,6628.00
2022-08-25T12:43:52.728Z,6640.00
2022-08-25T12:44:52.710Z,6664.00
2022-08-25T12:45:53.101Z,6688.00
2022-08-25T12:46:52.700Z,6732.00
2022-08-25T12:47:52.683Z,6772.00
2022-08-25T12:48:52.691Z,6812.00
2022-08-25T12:49:52.674Z,6848.00
2022-08-25T12:50:52.679Z,6892.00
2022-08-25T12:51:52.667Z,6940.00
2022-08-25T12:52:52.653Z,7020.00
2022-08-25T12:53:52.662Z,7060.00
2022-08-25T12:54:52.642Z,7092.00
2022-08-25T12:55:52.629Z,7136.00
2022-08-25T12:56:52.632Z,7160.00
2022-08-25T12:57:52.616Z,7212.00
2022-08-25T12:59:00.881Z,7248.00
2022-08-25T12:59:52.616Z,7188.00
2022-08-25T13:00:53.180Z,7116.00
2022-08-25T13:01:52.732Z,7136.00
2022-08-25T13:02:52.668Z,7176.00
2022-08-25T13:03:52.597Z,7208.00
2022-08-25T13:04:52.572Z,7244.00
2022-08-25T13:05:52.564Z,7236.00
2022-08-25T13:06:52.560Z,7216.00
2022-08-25T13:07:52.562Z,7196.00
2022-08-25T13:08:52.569Z,7172.00
2022-08-25T13:09:52.538Z,7148.00
2022-08-25T13:10:52.535Z,7164.00
2022-08-25T13:11:52.564Z,7216.00
2022-08-25T13:12:52.521Z,7392.00
2022-08-25T13:13:52.537Z,7496.00
2022-08-25T13:14:52.510Z,7568.00
2022-08-25T13:15:54.827Z,7600.00
2022-08-25T13:16:52.543Z,7720.00
2022-08-25T13:17:52.842Z,7864.00
2022-08-25T13:18:52.508Z,8032.00
2022-08-25T13:19:52.486Z,8248.00
2022-08-25T13:20:52.550Z,8500.00
2022-08-25T13:21:52.465Z,8788.00
2022-08-25T13:22:57.235Z,9220.00
2022-08-25T13:23:54.013Z,9728.00
2022-08-25T13:24:52.493Z,10384.00
2022-08-25T13:25:52.442Z,11316.00
2022-08-25T13:26:52.447Z,12628.00
2022-08-25T13:27:52.440Z,14268.00
2022-08-25T13:28:52.450Z,16160.00
2022-08-25T13:29:52.729Z,19424.00
2022-08-25T13:30:52.427Z,39040.00
2022-08-25T13:31:52.446Z,62400.00
2022-08-25T13:32:52.406Z,65056.00
2022-08-25T13:33:52.420Z,64416.00
2022-08-25T13:34:52.469Z,66240.00
2022-08-25T13:35:52.440Z,66432.00
2022-08-25T13:36:54.235Z,67040.00
2022-08-25T13:37:52.379Z,64960.00
2022-08-25T13:38:52.395Z,66336.00
2022-08-25T13:39:56.430Z,68256.00
2022-08-25T13:40:52.406Z,70208.00
2022-08-25T13:41:54.550Z,75808.00
2022-08-25T13:42:55.880Z,82944.00
2022-08-25T13:43:52.368Z,86720.00
2022-08-25T13:44:53.941Z,89536.00
2022-08-25T13:45:52.385Z,90368.00
2022-08-25T13:46:52.347Z,89600.00
2022-08-25T13:47:55.911Z,90080.00
2022-08-25T13:48:52.350Z,91296.00
2022-08-25T13:49:52.324Z,89440.00
2022-08-25T13:50:52.952Z,90336.00
2022-08-25T13:51:52.314Z,92128.00
2022-08-25T13:52:52.373Z,91712.00
2022-08-25T13:53:52.327Z,87296.00
2022-08-25T13:54:52.304Z,87808.00
2022-08-25T13:55:52.370Z,86912.00
2022-08-25T13:56:52.305Z,88608.00
2022-08-25T13:57:52.292Z,89056.00
2022-08-25T13:58:52.312Z,87680.00
2022-08-25T13:59:52.287Z,86528.00
2022-08-25T14:00:53.686Z,82912.00
2022-08-25T14:01:52.339Z,83712.00
2022-08-25T14:02:52.379Z,82112.00
2022-08-25T14:03:52.291Z,76864.00
2022-08-25T14:04:52.853Z,79424.00
2022-08-25T14:05:52.262Z,82400.00
2022-08-25T14:06:52.269Z,80608.00
2022-08-25T14:07:58.778Z,78560.00
2022-08-25T14:08:54.734Z,78912.00
2022-08-25T14:09:52.361Z,80672.00
2022-08-25T14:10:52.249Z,79776.00
2022-08-25T14:11:52.242Z,78720.00
2022-08-25T14:12:52.253Z,77568.00
2022-08-25T14:13:52.259Z,75552.00
2022-08-25T14:14:52.235Z,77088.00
2022-08-25T14:15:52.239Z,78272.00
2022-08-25T14:16:52.373Z,76448.00
2022-08-25T14:17:52.232Z,76768.00
2022-08-25T14:18:52.242Z,75072.00
2022-08-25T14:19:52.230Z,75520.00
2022-08-25T14:20:52.230Z,75776.00
2022-08-25T14:21:52.892Z,76640.00
2022-08-25T14:22:52.327Z,74688.00
2022-08-25T14:23:52.233Z,70336.00
2022-08-25T14:24:52.221Z,70240.00
2022-08-25T14:25:52.213Z,69152.00
2022-08-25T14:26:54.485Z,69728.00
2022-08-25T14:28:08.302Z,68832.00
2022-08-25T14:28:52.213Z,67680.00
2022-08-25T14:29:52.974Z,69856.00
2022-08-25T14:30:52.209Z,67776.00
2022-08-25T14:31:52.249Z,67296.00
2022-08-25T14:32:52.248Z,67360.00
2022-08-25T14:33:52.213Z,67520.00
2022-08-25T14:34:52.189Z,67424.00
2022-08-25T14:35:52.197Z,66240.00
2022-08-25T14:36:52.196Z,66528.00
2022-08-25T14:37:52.248Z,65312.00
2022-08-25T14:38:54.541Z,65536.00
2022-08-25T14:39:52.236Z,67360.00
2022-08-25T14:40:52.234Z,65248.00
2022-08-25T14:41:53.899Z,63104.00
2022-08-25T14:42:52.188Z,62304.00
2022-08-25T14:43:52.202Z,62112.00
2022-08-25T14:44:52.186Z,60896.00
2022-08-25T14:45:52.214Z,61184.00
2022-08-25T14:46:52.183Z,61056.00
2022-08-25T14:47:52.186Z,62016.00
2022-08-25T14:48:52.197Z,61600.00
2022-08-25T14:49:52.181Z,60384.00
2022-08-25T14:50:52.172Z,59776.00
2022-08-25T14:51:52.181Z,59648.00
2022-08-25T14:52:52.302Z,58560.00
2022-08-25T14:53:52.189Z,57632.00
2022-08-25T14:54:52.166Z,57952.00
2022-08-25T14:55:52.167Z,58656.00
2022-08-25T14:56:52.174Z,63200.00
2022-08-25T14:57:52.163Z,70464.00
2022-08-25T14:58:54.292Z,71776.00
2022-08-25T14:59:52.163Z,63424.00
2022-08-25T15:00:52.210Z,54752.00
2022-08-25T15:01:52.163Z,49568.00
2022-08-25T15:02:52.162Z,47360.00
2022-08-25T15:03:52.205Z,46752.00
2022-08-25T15:04:52.169Z,46144.00
2022-08-25T15:05:52.164Z,44672.00
2022-08-25T15:06:52.164Z,43904.00
2022-08-25T15:07:52.164Z,44032.00
2022-08-25T15:08:52.177Z,44096.00
2022-08-25T15:09:52.194Z,44576.00
2022-08-25T15:10:52.165Z,45376.00
2022-08-25T15:11:52.167Z,47040.00
2022-08-25T15:12:53.878Z,49184.00
2022-08-25T15:13:52.188Z,51104.00
2022-08-25T15:14:52.165Z,57696.00
2022-08-25T15:15:53.225Z,66944.00
2022-08-25T15:16:52.344Z,67136.00
2022-08-25T15:17:52.174Z,61824.00
2022-08-25T15:18:52.186Z,55808.00
2022-08-25T15:19:52.172Z,51776.00
2022-08-25T15:20:52.179Z,50720.00
2022-08-25T15:21:52.186Z,50112.00
2022-08-25T15:22:52.176Z,48992.00
2022-08-25T15:23:56.222Z,48416.00
2022-08-25T15:24:52.178Z,47712.00
2022-08-25T15:25:52.739Z,47168.00
2022-08-25T15:27:52.183Z,48288.00
2022-08-25T15:28:52.206Z,48768.00
2022-08-25T15:29:52.196Z,49248.00
2022-08-25T15:30:52.187Z,49024.00
2022-08-25T15:31:52.257Z,49664.00
2022-08-25T15:32:52.201Z,49184.00
2022-08-25T15:33:52.206Z,49248.00
2022-08-25T15:34:52.203Z,48992.00
2022-08-25T15:35:52.197Z,49120.00
2022-08-25T15:36:52.206Z,47616.00
2022-08-25T15:37:52.209Z,45600.00
2022-08-25T15:38:52.223Z,46336.00
2022-08-25T15:39:52.290Z,46912.00
2022-08-25T15:40:52.212Z,46048.00
2022-08-25T15:41:52.293Z,45440.00
2022-08-25T15:42:52.209Z,43808.00
2022-08-25T15:43:52.231Z,30208.00
2022-08-25T15:44:53.095Z,12764.00
2022-08-25T15:45:52.212Z,7576.00
2022-08-25T15:46:52.248Z,7292.00
2022-08-25T15:47:54.136Z,13232.00
2022-08-25T15:48:52.248Z,29568.00
2022-08-25T15:55:03.809Z,38560.00
2022-08-25T15:56:06.300Z,37792.00
2022-08-25T15:57:03.790Z,37024.00
2022-08-25T15:58:03.800Z,37344.00
2022-08-25T15:59:03.802Z,38368.00
2022-08-25T16:00:03.789Z,38528.00
2022-08-25T16:01:03.849Z,38976.00
2022-08-25T16:02:04.378Z,38816.00
2022-08-25T16:03:03.797Z,36736.00
2022-08-25T16:04:03.799Z,35904.00
2022-08-25T16:05:03.786Z,35904.00
2022-08-25T16:06:03.797Z,35296.00
2022-08-25T16:07:03.788Z,35360.00
2022-08-25T16:08:03.795Z,35296.00
2022-08-25T16:09:03.803Z,35936.00
2022-08-25T16:10:03.788Z,35104.00
2022-08-25T16:11:03.813Z,33920.00
2022-08-25T16:12:06.765Z,32544.00
2022-08-25T16:13:03.802Z,33056.00
2022-08-25T16:14:03.812Z,33024.00
2022-08-25T16:15:03.802Z,32512.00
2022-08-25T16:16:03.909Z,32992.00
2022-08-25T16:17:03.789Z,32896.00
2022-08-25T16:18:04.830Z,31840.00
2022-08-25T16:19:03.805Z,30560.00
2022-08-25T16:20:03.801Z,30400.00
2022-08-25T16:21:03.788Z,29984.00
2022-08-25T16:22:03.792Z,29856.00
2022-08-25T16:23:04.112Z,29312.00
2022-08-25T16:24:07.533Z,28448.00
2022-08-25T16:25:03.803Z,27072.00
2022-08-25T16:26:03.794Z,26144.00
2022-08-25T16:27:11.224Z,25696.00
2022-08-25T16:28:03.794Z,25632.00
2022-08-25T16:29:03.820Z,25824.00
2022-08-25T16:30:03.799Z,25536.00
2022-08-25T16:31:03.838Z,24832.00
2022-08-25T16:32:03.808Z,24832.00
2022-08-25T16:33:03.797Z,24608.00
2022-08-25T16:34:03.807Z,23712.00
2022-08-25T16:35:03.806Z,22976.00
2022-08-25T16:36:03.793Z,22592.00
2022-08-25T16:37:03.800Z,22400.00
2022-08-25T16:38:03.926Z,22016.00
2022-08-25T16:39:03.812Z,21440.00
2022-08-25T16:40:03.825Z,20704.00
2022-08-25T16:41:08.229Z,19904.00
2022-08-25T16:42:03.786Z,19072.00
2022-08-25T16:43:03.793Z,16224.00
2022-08-25T16:44:03.804Z,11852.00
2022-08-25T16:45:05.162Z,10124.00
2022-08-25T16:46:03.785Z,9624.00
2022-08-25T16:47:03.825Z,9084.00
2022-08-25T16:48:03.769Z,10380.00
2022-08-25T16:49:03.781Z,12236.00
2022-08-25T16:50:03.762Z,11020.00
2022-08-25T16:51:03.761Z,11108.00
2022-08-25T16:52:03.764Z,8652.00
2022-08-25T16:53:03.761Z,6508.00
2022-08-25T16:54:03.759Z,5996.00
2022-08-25T16:55:03.756Z,5864.00
2022-08-25T16:56:04.456Z,5504.00
2022-08-25T17:02:42.773Z,4908.00
